UB14 weather

Kyurdamir Air Base
Kyurdamir, Kurdamir, Azerbaijan

Public forecast

Using degrees Celsius for public forecast. Weather courtesy of forecast.io.

Closest aviation weather report (METAR) to Kyurdamir Air Base

Closest report is Gabala International Airport, 39.1 nm (72.4 km) NNW. Retrieved 2020/07/11 04:00 UTC (51 minutes ago):

UBBQ 110400Z 19005KT 9999 OVC075 22/20 Q1016 R16/////// NOSIG RMK MT OBSC

Closest aviation forecast (TAF) to Kyurdamir Air Base

Closest forecast is Gabala International Airport, 39.1 nm (72.4 km) NNW. Retrieved 2020-07-11 00:00 UTC (5 hours ago):

TAF UBBQ 102311Z 1100/1124 VRB04KT 9999 FEW050CB OVC100 TX28/1110Z TN18/1102Z TEMPO 1100/1108 36012KT -TSRA SCT040CB BKN080